sensor_id;sensor_type;location;lat;lon;timestamp;P1;durP1;ratioP1;P2;durP2;ratioP2
77350;SDS011;66420;50.246;14.320;2023-04-16T00:00:59;24.15;;;12.05;;
77350;SDS011;66420;50.246;14.320;2023-04-16T00:03:44;23.35;;;11.13;;
77350;SDS011;66420;50.246;14.320;2023-04-16T00:06:29;22.15;;;12.27;;
77350;SDS011;66420;50.246;14.320;2023-04-16T00:09:15;23.85;;;12.10;;
77350;SDS011;66420;50.246;14.320;2023-04-16T00:11:59;23.30;;;12.07;;
77350;SDS011;66420;50.246;14.320;2023-04-16T00:14:44;20.25;;;10.75;;
77350;SDS011;66420;50.246;14.320;2023-04-16T00:17:28;27.70;;;11.93;;
77350;SDS011;66420;50.246;14.320;2023-04-16T00:20:13;23.17;;;10.57;;
77350;SDS011;66420;50.246;14.320;2023-04-16T00:22:58;19.70;;;10.32;;
77350;SDS011;66420;50.246;14.320;2023-04-16T00:25:43;20.83;;;11.00;;
77350;SDS011;66420;50.246;14.320;2023-04-16T00:28:28;21.58;;;10.57;;
77350;SDS011;66420;50.246;14.320;2023-04-16T00:31:13;21.55;;;10.85;;
77350;SDS011;66420;50.246;14.320;2023-04-16T00:33:58;21.67;;;11.40;;
77350;SDS011;66420;50.246;14.320;2023-04-16T00:36:43;19.58;;;10.90;;
77350;SDS011;66420;50.246;14.320;2023-04-16T00:39:28;22.17;;;11.35;;
77350;SDS011;66420;50.246;14.320;2023-04-16T00:42:13;20.83;;;11.00;;
77350;SDS011;66420;50.246;14.320;2023-04-16T00:44:58;22.25;;;11.20;;
77350;SDS011;66420;50.246;14.320;2023-04-16T00:47:43;22.15;;;11.85;;
77350;SDS011;66420;50.246;14.320;2023-04-16T00:50:28;24.33;;;12.02;;
77350;SDS011;66420;50.246;14.320;2023-04-16T00:53:13;27.45;;;13.32;;
77350;SDS011;66420;50.246;14.320;2023-04-16T00:55:59;26.15;;;12.93;;
77350;SDS011;66420;50.246;14.320;2023-04-16T00:58:45;26.52;;;13.07;;
77350;SDS011;66420;50.246;14.320;2023-04-16T01:01:30;24.60;;;12.77;;
77350;SDS011;66420;50.246;14.320;2023-04-16T01:04:15;27.92;;;12.52;;
77350;SDS011;66420;50.246;14.320;2023-04-16T01:07:00;23.08;;;11.57;;
77350;SDS011;66420;50.246;14.320;2023-04-16T01:09:44;25.92;;;12.18;;
77350;SDS011;66420;50.246;14.320;2023-04-16T01:12:29;24.10;;;12.52;;
77350;SDS011;66420;50.246;14.320;2023-04-16T01:15:14;23.38;;;11.32;;
77350;SDS011;66420;50.246;14.320;2023-04-16T01:17:59;25.05;;;11.43;;
77350;SDS011;66420;50.246;14.320;2023-04-16T01:20:44;20.75;;;10.75;;
77350;SDS011;66420;50.246;14.320;2023-04-16T01:23:30;24.05;;;11.93;;
77350;SDS011;66420;50.246;14.320;2023-04-16T01:26:14;24.63;;;12.60;;
77350;SDS011;66420;50.246;14.320;2023-04-16T01:28:59;24.52;;;11.80;;
77350;SDS011;66420;50.246;14.320;2023-04-16T01:31:44;19.83;;;10.88;;
77350;SDS011;66420;50.246;14.320;2023-04-16T01:34:29;24.65;;;10.73;;
77350;SDS011;66420;50.246;14.320;2023-04-16T01:37:14;23.77;;;11.18;;
77350;SDS011;66420;50.246;14.320;2023-04-16T01:40:01;17.40;;;9.27;;
77350;SDS011;66420;50.246;14.320;2023-04-16T01:42:46;18.70;;;9.85;;
77350;SDS011;66420;50.246;14.320;2023-04-16T01:45:31;21.27;;;11.18;;
77350;SDS011;66420;50.246;14.320;2023-04-16T01:48:17;18.67;;;10.35;;
77350;SDS011;66420;50.246;14.320;2023-04-16T01:51:02;21.40;;;10.77;;
77350;SDS011;66420;50.246;14.320;2023-04-16T01:53:51;16.95;;;9.73;;
77350;SDS011;66420;50.246;14.320;2023-04-16T01:56:35;17.30;;;9.50;;
77350;SDS011;66420;50.246;14.320;2023-04-16T01:59:20;25.92;;;12.48;;
77350;SDS011;66420;50.246;14.320;2023-04-16T02:02:09;23.50;;;11.27;;
77350;SDS011;66420;50.246;14.320;2023-04-16T02:04:54;19.38;;;10.82;;
77350;SDS011;66420;50.246;14.320;2023-04-16T02:07:42;20.10;;;11.23;;
77350;SDS011;66420;50.246;14.320;2023-04-16T02:10:27;23.27;;;11.07;;
77350;SDS011;66420;50.246;14.320;2023-04-16T02:13:13;20.27;;;10.68;;
77350;SDS011;66420;50.246;14.320;2023-04-16T02:15:59;18.55;;;9.95;;
77350;SDS011;66420;50.246;14.320;2023-04-16T02:18:44;17.67;;;9.68;;
77350;SDS011;66420;50.246;14.320;2023-04-16T02:21:29;24.48;;;11.05;;
77350;SDS011;66420;50.246;14.320;2023-04-16T02:24:15;19.85;;;10.45;;
77350;SDS011;66420;50.246;14.320;2023-04-16T02:27:00;19.20;;;10.50;;
77350;SDS011;66420;50.246;14.320;2023-04-16T02:29:45;18.17;;;9.35;;
77350;SDS011;66420;50.246;14.320;2023-04-16T02:32:30;21.02;;;10.30;;
77350;SDS011;66420;50.246;14.320;2023-04-16T02:35:15;20.52;;;10.32;;
77350;SDS011;66420;50.246;14.320;2023-04-16T02:38:00;18.55;;;10.18;;
77350;SDS011;66420;50.246;14.320;2023-04-16T02:40:45;19.60;;;10.02;;
77350;SDS011;66420;50.246;14.320;2023-04-16T02:43:30;20.13;;;10.88;;
77350;SDS011;66420;50.246;14.320;2023-04-16T02:46:14;20.90;;;10.20;;
77350;SDS011;66420;50.246;14.320;2023-04-16T02:48:59;21.15;;;10.30;;
77350;SDS011;66420;50.246;14.320;2023-04-16T02:51:44;19.52;;;10.63;;
77350;SDS011;66420;50.246;14.320;2023-04-16T02:54:28;17.10;;;9.32;;
77350;SDS011;66420;50.246;14.320;2023-04-16T02:57:13;16.88;;;9.65;;
77350;SDS011;66420;50.246;14.320;2023-04-16T02:59:58;17.05;;;9.18;;
77350;SDS011;66420;50.246;14.320;2023-04-16T03:02:43;18.23;;;9.35;;
77350;SDS011;66420;50.246;14.320;2023-04-16T03:05:28;19.25;;;10.45;;
77350;SDS011;66420;50.246;14.320;2023-04-16T03:08:12;16.85;;;9.70;;
77350;SDS011;66420;50.246;14.320;2023-04-16T03:10:57;19.58;;;9.45;;
77350;SDS011;66420;50.246;14.320;2023-04-16T03:13:42;19.67;;;9.98;;
77350;SDS011;66420;50.246;14.320;2023-04-16T03:16:27;20.85;;;10.13;;
77350;SDS011;66420;50.246;14.320;2023-04-16T03:19:12;17.50;;;9.50;;
77350;SDS011;66420;50.246;14.320;2023-04-16T03:21:56;18.98;;;10.25;;
77350;SDS011;66420;50.246;14.320;2023-04-16T03:24:41;16.90;;;9.60;;
77350;SDS011;66420;50.246;14.320;2023-04-16T03:27:25;15.80;;;9.10;;
77350;SDS011;66420;50.246;14.320;2023-04-16T03:30:10;18.58;;;10.30;;
77350;SDS011;66420;50.246;14.320;2023-04-16T03:32:56;17.15;;;9.93;;
77350;SDS011;66420;50.246;14.320;2023-04-16T03:35:40;16.88;;;8.68;;
77350;SDS011;66420;50.246;14.320;2023-04-16T03:38:25;17.58;;;9.30;;
77350;SDS011;66420;50.246;14.320;2023-04-16T03:41:10;16.77;;;8.75;;
77350;SDS011;66420;50.246;14.320;2023-04-16T03:43:55;18.38;;;10.02;;
77350;SDS011;66420;50.246;14.320;2023-04-16T03:46:40;17.45;;;9.38;;
77350;SDS011;66420;50.246;14.320;2023-04-16T03:49:25;18.90;;;9.63;;
77350;SDS011;66420;50.246;14.320;2023-04-16T03:52:10;19.67;;;9.32;;
77350;SDS011;66420;50.246;14.320;2023-04-16T03:54:54;18.85;;;9.63;;
77350;SDS011;66420;50.246;14.320;2023-04-16T03:57:39;17.42;;;9.90;;
77350;SDS011;66420;50.246;14.320;2023-04-16T04:00:24;14.95;;;9.48;;
77350;SDS011;66420;50.246;14.320;2023-04-16T04:03:10;19.17;;;10.20;;
77350;SDS011;66420;50.246;14.320;2023-04-16T04:05:54;19.48;;;10.07;;
77350;SDS011;66420;50.246;14.320;2023-04-16T04:08:39;18.98;;;9.82;;
77350;SDS011;66420;50.246;14.320;2023-04-16T04:11:24;17.05;;;9.13;;
77350;SDS011;66420;50.246;14.320;2023-04-16T04:14:09;16.75;;;9.00;;
77350;SDS011;66420;50.246;14.320;2023-04-16T04:16:53;21.83;;;10.20;;
77350;SDS011;66420;50.246;14.320;2023-04-16T04:19:38;19.33;;;11.13;;
77350;SDS011;66420;50.246;14.320;2023-04-16T04:22:23;17.67;;;9.32;;
77350;SDS011;66420;50.246;14.320;2023-04-16T04:25:11;20.75;;;10.45;;
77350;SDS011;66420;50.246;14.320;2023-04-16T04:27:56;26.38;;;12.65;;
77350;SDS011;66420;50.246;14.320;2023-04-16T04:30:41;20.60;;;10.15;;
77350;SDS011;66420;50.246;14.320;2023-04-16T04:33:25;27.05;;;12.32;;
77350;SDS011;66420;50.246;14.320;2023-04-16T04:36:11;27.40;;;12.10;;
77350;SDS011;66420;50.246;14.320;2023-04-16T04:38:56;21.88;;;10.60;;
77350;SDS011;66420;50.246;14.320;2023-04-16T04:41:40;21.90;;;10.32;;
77350;SDS011;66420;50.246;14.320;2023-04-16T04:44:25;23.80;;;9.88;;
77350;SDS011;66420;50.246;14.320;2023-04-16T04:47:10;17.10;;;9.85;;
77350;SDS011;66420;50.246;14.320;2023-04-16T04:49:55;17.77;;;9.52;;
77350;SDS011;66420;50.246;14.320;2023-04-16T04:52:40;17.95;;;9.30;;
77350;SDS011;66420;50.246;14.320;2023-04-16T04:55:24;15.73;;;9.05;;
77350;SDS011;66420;50.246;14.320;2023-04-16T04:58:09;17.17;;;8.88;;
77350;SDS011;66420;50.246;14.320;2023-04-16T05:00:54;19.00;;;9.55;;
77350;SDS011;66420;50.246;14.320;2023-04-16T05:03:38;16.05;;;9.02;;
77350;SDS011;66420;50.246;14.320;2023-04-16T05:06:23;15.68;;;8.65;;
77350;SDS011;66420;50.246;14.320;2023-04-16T05:12:49;14.20;;;8.35;;
77350;SDS011;66420;50.246;14.320;2023-04-16T05:15:34;18.08;;;9.50;;
77350;SDS011;66420;50.246;14.320;2023-04-16T05:18:18;16.63;;;9.32;;
77350;SDS011;66420;50.246;14.320;2023-04-16T05:21:03;17.08;;;8.65;;
77350;SDS011;66420;50.246;14.320;2023-04-16T05:23:48;17.35;;;9.45;;
77350;SDS011;66420;50.246;14.320;2023-04-16T05:26:32;16.60;;;8.63;;
77350;SDS011;66420;50.246;14.320;2023-04-16T05:29:17;16.20;;;8.98;;
77350;SDS011;66420;50.246;14.320;2023-04-16T05:32:02;15.00;;;8.07;;
77350;SDS011;66420;50.246;14.320;2023-04-16T05:34:46;14.90;;;8.60;;
77350;SDS011;66420;50.246;14.320;2023-04-16T05:37:31;12.68;;;7.65;;
77350;SDS011;66420;50.246;14.320;2023-04-16T05:40:15;15.57;;;8.43;;
77350;SDS011;66420;50.246;14.320;2023-04-16T05:43:00;14.52;;;8.23;;
77350;SDS011;66420;50.246;14.320;2023-04-16T05:45:45;15.52;;;8.13;;
77350;SDS011;66420;50.246;14.320;2023-04-16T05:48:30;16.00;;;8.50;;
77350;SDS011;66420;50.246;14.320;2023-04-16T05:51:15;14.25;;;8.55;;
77350;SDS011;66420;50.246;14.320;2023-04-16T05:54:00;15.85;;;8.77;;
77350;SDS011;66420;50.246;14.320;2023-04-16T05:56:45;14.85;;;8.70;;
77350;SDS011;66420;50.246;14.320;2023-04-16T05:59:30;15.95;;;8.90;;
77350;SDS011;66420;50.246;14.320;2023-04-16T06:02:15;16.08;;;8.82;;
77350;SDS011;66420;50.246;14.320;2023-04-16T06:05:00;14.05;;;8.18;;
77350;SDS011;66420;50.246;14.320;2023-04-16T06:07:45;14.68;;;8.95;;
77350;SDS011;66420;50.246;14.320;2023-04-16T06:10:30;13.45;;;8.27;;
77350;SDS011;66420;50.246;14.320;2023-04-16T06:13:15;15.15;;;8.77;;
77350;SDS011;66420;50.246;14.320;2023-04-16T06:16:00;18.10;;;8.32;;
77350;SDS011;66420;50.246;14.320;2023-04-16T06:18:44;17.52;;;8.80;;
77350;SDS011;66420;50.246;14.320;2023-04-16T06:21:29;16.45;;;9.50;;
77350;SDS011;66420;50.246;14.320;2023-04-16T06:24:14;15.32;;;8.30;;
77350;SDS011;66420;50.246;14.320;2023-04-16T06:27:01;16.33;;;9.65;;
77350;SDS011;66420;50.246;14.320;2023-04-16T06:29:46;13.80;;;8.43;;
77350;SDS011;66420;50.246;14.320;2023-04-16T06:32:31;13.65;;;8.10;;
77350;SDS011;66420;50.246;14.320;2023-04-16T06:40:19;13.57;;;8.40;;
77350;SDS011;66420;50.246;14.320;2023-04-16T06:43:04;13.82;;;7.72;;
77350;SDS011;66420;50.246;14.320;2023-04-16T06:45:49;15.27;;;8.63;;
77350;SDS011;66420;50.246;14.320;2023-04-16T06:48:34;18.17;;;9.02;;
77350;SDS011;66420;50.246;14.320;2023-04-16T06:51:19;16.75;;;8.68;;
77350;SDS011;66420;50.246;14.320;2023-04-16T06:54:04;13.45;;;8.25;;
77350;SDS011;66420;50.246;14.320;2023-04-16T06:56:48;13.77;;;8.05;;
77350;SDS011;66420;50.246;14.320;2023-04-16T06:59:33;13.38;;;7.82;;
77350;SDS011;66420;50.246;14.320;2023-04-16T07:02:17;14.23;;;7.90;;
77350;SDS011;66420;50.246;14.320;2023-04-16T07:05:03;13.23;;;8.32;;
77350;SDS011;66420;50.246;14.320;2023-04-16T07:07:47;17.08;;;9.70;;
77350;SDS011;66420;50.246;14.320;2023-04-16T07:10:32;14.73;;;7.70;;
77350;SDS011;66420;50.246;14.320;2023-04-16T07:13:16;14.00;;;8.68;;
77350;SDS011;66420;50.246;14.320;2023-04-16T07:16:01;15.63;;;8.77;;
77350;SDS011;66420;50.246;14.320;2023-04-16T07:18:46;16.02;;;8.57;;
77350;SDS011;66420;50.246;14.320;2023-04-16T07:21:31;14.15;;;8.48;;
77350;SDS011;66420;50.246;14.320;2023-04-16T07:24:16;15.23;;;8.63;;
77350;SDS011;66420;50.246;14.320;2023-04-16T07:27:00;14.20;;;8.75;;
77350;SDS011;66420;50.246;14.320;2023-04-16T07:29:45;13.48;;;7.70;;
77350;SDS011;66420;50.246;14.320;2023-04-16T07:32:30;14.13;;;7.80;;
77350;SDS011;66420;50.246;14.320;2023-04-16T07:35:15;14.10;;;8.45;;
77350;SDS011;66420;50.246;14.320;2023-04-16T07:38:00;14.25;;;8.32;;
77350;SDS011;66420;50.246;14.320;2023-04-16T07:40:44;12.20;;;7.45;;
77350;SDS011;66420;50.246;14.320;2023-04-16T07:43:29;13.60;;;8.48;;
77350;SDS011;66420;50.246;14.320;2023-04-16T07:46:14;12.05;;;8.40;;
77350;SDS011;66420;50.246;14.320;2023-04-16T07:48:59;12.73;;;8.02;;
77350;SDS011;66420;50.246;14.320;2023-04-16T07:51:44;12.40;;;7.90;;
77350;SDS011;66420;50.246;14.320;2023-04-16T07:54:29;11.38;;;7.97;;
77350;SDS011;66420;50.246;14.320;2023-04-16T07:57:14;14.30;;;8.68;;
77350;SDS011;66420;50.246;14.320;2023-04-16T07:59:59;12.25;;;8.32;;
77350;SDS011;66420;50.246;14.320;2023-04-16T08:02:48;12.30;;;7.68;;
77350;SDS011;66420;50.246;14.320;2023-04-16T08:05:33;11.35;;;7.40;;
77350;SDS011;66420;50.246;14.320;2023-04-16T08:08:17;12.05;;;7.82;;
77350;SDS011;66420;50.246;14.320;2023-04-16T08:11:02;13.82;;;7.68;;
77350;SDS011;66420;50.246;14.320;2023-04-16T08:13:47;13.93;;;7.82;;
77350;SDS011;66420;50.246;14.320;2023-04-16T08:16:32;11.75;;;7.40;;
77350;SDS011;66420;50.246;14.320;2023-04-16T08:19:17;11.40;;;7.53;;
77350;SDS011;66420;50.246;14.320;2023-04-16T08:22:02;10.32;;;6.72;;
77350;SDS011;66420;50.246;14.320;2023-04-16T08:24:47;12.57;;;8.27;;
77350;SDS011;66420;50.246;14.320;2023-04-16T08:27:32;12.65;;;7.07;;
77350;SDS011;66420;50.246;14.320;2023-04-16T08:30:17;10.93;;;7.13;;
77350;SDS011;66420;50.246;14.320;2023-04-16T08:33:02;10.55;;;6.57;;
77350;SDS011;66420;50.246;14.320;2023-04-16T08:35:46;11.60;;;7.00;;
77350;SDS011;66420;50.246;14.320;2023-04-16T08:38:31;12.23;;;7.40;;
77350;SDS011;66420;50.246;14.320;2023-04-16T08:41:16;10.70;;;7.47;;
77350;SDS011;66420;50.246;14.320;2023-04-16T08:44:05;11.88;;;7.00;;
77350;SDS011;66420;50.246;14.320;2023-04-16T08:46:53;10.32;;;6.55;;
77350;SDS011;66420;50.246;14.320;2023-04-16T08:49:42;9.55;;;5.72;;
77350;SDS011;66420;50.246;14.320;2023-04-16T08:52:31;14.13;;;6.10;;
77350;SDS011;66420;50.246;14.320;2023-04-16T08:55:21;8.43;;;5.30;;
77350;SDS011;66420;50.246;14.320;2023-04-16T08:58:20;8.95;;;6.28;;
77350;SDS011;66420;50.246;14.320;2023-04-16T09:01:07;8.93;;;5.72;;
77350;SDS011;66420;50.246;14.320;2023-04-16T09:03:54;10.50;;;6.43;;
77350;SDS011;66420;50.246;14.320;2023-04-16T09:06:39;8.70;;;5.13;;
77350;SDS011;66420;50.246;14.320;2023-04-16T09:09:25;10.45;;;6.57;;
77350;SDS011;66420;50.246;14.320;2023-04-16T09:12:10;8.63;;;4.72;;
77350;SDS011;66420;50.246;14.320;2023-04-16T09:14:55;7.95;;;4.80;;
77350;SDS011;66420;50.246;14.320;2023-04-16T09:17:40;4.97;;;3.30;;
77350;SDS011;66420;50.246;14.320;2023-04-16T09:20:25;6.05;;;3.10;;
77350;SDS011;66420;50.246;14.320;2023-04-16T09:23:10;5.22;;;3.80;;
77350;SDS011;66420;50.246;14.320;2023-04-16T09:25:56;6.18;;;4.20;;
77350;SDS011;66420;50.246;14.320;2023-04-16T09:28:49;7.30;;;4.50;;
77350;SDS011;66420;50.246;14.320;2023-04-16T09:31:34;7.32;;;4.28;;
77350;SDS011;66420;50.246;14.320;2023-04-16T09:34:19;8.52;;;4.60;;
77350;SDS011;66420;50.246;14.320;2023-04-16T09:37:13;6.38;;;3.80;;
77350;SDS011;66420;50.246;14.320;2023-04-16T09:40:01;7.90;;;4.10;;
77350;SDS011;66420;50.246;14.320;2023-04-16T09:42:47;5.97;;;3.50;;
77350;SDS011;66420;50.246;14.320;2023-04-16T09:45:33;8.63;;;3.70;;
77350;SDS011;66420;50.246;14.320;2023-04-16T09:48:32;5.88;;;3.45;;
77350;SDS011;66420;50.246;14.320;2023-04-16T09:51:17;5.88;;;3.28;;
77350;SDS011;66420;50.246;14.320;2023-04-16T09:54:03;8.13;;;3.80;;
77350;SDS011;66420;50.246;14.320;2023-04-16T09:56:49;6.28;;;3.80;;
77350;SDS011;66420;50.246;14.320;2023-04-16T09:59:34;7.20;;;4.18;;
77350;SDS011;66420;50.246;14.320;2023-04-16T10:02:19;6.68;;;3.40;;
77350;SDS011;66420;50.246;14.320;2023-04-16T10:05:04;6.82;;;3.53;;
77350;SDS011;66420;50.246;14.320;2023-04-16T10:07:49;6.85;;;3.83;;
77350;SDS011;66420;50.246;14.320;2023-04-16T10:10:34;5.45;;;3.50;;
77350;SDS011;66420;50.246;14.320;2023-04-16T10:13:19;5.18;;;3.13;;
77350;SDS011;66420;50.246;14.320;2023-04-16T10:16:03;5.28;;;3.22;;
77350;SDS011;66420;50.246;14.320;2023-04-16T10:18:49;5.90;;;3.00;;
77350;SDS011;66420;50.246;14.320;2023-04-16T10:21:34;5.10;;;2.90;;
77350;SDS011;66420;50.246;14.320;2023-04-16T10:24:19;4.68;;;2.60;;
77350;SDS011;66420;50.246;14.320;2023-04-16T10:27:05;4.40;;;2.60;;
77350;SDS011;66420;50.246;14.320;2023-04-16T10:29:50;3.58;;;2.70;;
77350;SDS011;66420;50.246;14.320;2023-04-16T10:32:34;5.10;;;2.80;;
77350;SDS011;66420;50.246;14.320;2023-04-16T10:35:21;4.18;;;2.83;;
77350;SDS011;66420;50.246;14.320;2023-04-16T10:38:30;3.90;;;2.67;;
77350;SDS011;66420;50.246;14.320;2023-04-16T10:41:15;4.03;;;2.78;;
77350;SDS011;66420;50.246;14.320;2023-04-16T10:46:53;3.88;;;2.60;;
77350;SDS011;66420;50.246;14.320;2023-04-16T10:49:38;4.13;;;2.50;;
77350;SDS011;66420;50.246;14.320;2023-04-16T10:52:23;7.05;;;3.40;;
77350;SDS011;66420;50.246;14.320;2023-04-16T10:55:14;6.20;;;2.60;;
77350;SDS011;66420;50.246;14.320;2023-04-16T10:58:00;9.27;;;3.20;;
77350;SDS011;66420;50.246;14.320;2023-04-16T11:00:48;4.55;;;3.00;;
77350;SDS011;66420;50.246;14.320;2023-04-16T11:03:34;5.47;;;3.47;;
77350;SDS011;66420;50.246;14.320;2023-04-16T11:06:23;4.88;;;3.45;;
77350;SDS011;66420;50.246;14.320;2023-04-16T11:09:15;4.60;;;3.30;;
77350;SDS011;66420;50.246;14.320;2023-04-16T11:12:34;5.05;;;3.38;;
77350;SDS011;66420;50.246;14.320;2023-04-16T11:15:23;4.93;;;3.47;;
77350;SDS011;66420;50.246;14.320;2023-04-16T11:18:11;4.43;;;2.80;;
77350;SDS011;66420;50.246;14.320;2023-04-16T11:20:56;5.13;;;3.03;;
77350;SDS011;66420;50.246;14.320;2023-04-16T11:23:48;5.93;;;3.03;;
77350;SDS011;66420;50.246;14.320;2023-04-16T11:29:42;4.10;;;2.75;;
77350;SDS011;66420;50.246;14.320;2023-04-16T11:32:29;6.05;;;3.50;;
77350;SDS011;66420;50.246;14.320;2023-04-16T11:35:18;5.07;;;2.78;;
77350;SDS011;66420;50.246;14.320;2023-04-16T11:38:03;5.20;;;3.10;;
77350;SDS011;66420;50.246;14.320;2023-04-16T11:40:49;5.88;;;3.17;;
77350;SDS011;66420;50.246;14.320;2023-04-16T11:43:37;5.70;;;3.40;;
77350;SDS011;66420;50.246;14.320;2023-04-16T11:46:21;7.43;;;3.08;;
77350;SDS011;66420;50.246;14.320;2023-04-16T11:49:06;5.13;;;2.80;;
77350;SDS011;66420;50.246;14.320;2023-04-16T11:51:51;4.57;;;3.03;;
77350;SDS011;66420;50.246;14.320;2023-04-16T11:54:36;6.47;;;3.30;;
77350;SDS011;66420;50.246;14.320;2023-04-16T11:57:25;6.28;;;3.20;;
77350;SDS011;66420;50.246;14.320;2023-04-16T12:00:13;6.65;;;3.00;;
77350;SDS011;66420;50.246;14.320;2023-04-16T12:02:59;4.95;;;3.00;;
77350;SDS011;66420;50.246;14.320;2023-04-16T12:05:46;6.03;;;2.85;;
77350;SDS011;66420;50.246;14.320;2023-04-16T12:08:31;4.15;;;2.90;;
77350;SDS011;66420;50.246;14.320;2023-04-16T12:11:16;4.50;;;2.60;;
77350;SDS011;66420;50.246;14.320;2023-04-16T12:14:07;3.65;;;2.30;;
77350;SDS011;66420;50.246;14.320;2023-04-16T12:16:56;3.47;;;2.35;;
77350;SDS011;66420;50.246;14.320;2023-04-16T12:20:03;4.20;;;2.42;;
77350;SDS011;66420;50.246;14.320;2023-04-16T12:22:58;3.78;;;2.50;;
77350;SDS011;66420;50.246;14.320;2023-04-16T12:25:44;4.22;;;2.60;;
77350;SDS011;66420;50.246;14.320;2023-04-16T12:28:33;3.92;;;2.58;;
77350;SDS011;66420;50.246;14.320;2023-04-16T12:31:35;4.68;;;2.50;;
77350;SDS011;66420;50.246;14.320;2023-04-16T12:34:20;4.47;;;2.65;;
77350;SDS011;66420;50.246;14.320;2023-04-16T12:37:06;3.72;;;2.45;;
77350;SDS011;66420;50.246;14.320;2023-04-16T12:39:54;3.47;;;2.70;;
77350;SDS011;66420;50.246;14.320;2023-04-16T12:42:39;3.30;;;2.10;;
77350;SDS011;66420;50.246;14.320;2023-04-16T12:45:24;4.00;;;2.72;;
77350;SDS011;66420;50.246;14.320;2023-04-16T12:48:09;3.67;;;2.50;;
77350;SDS011;66420;50.246;14.320;2023-04-16T12:50:55;3.22;;;2.22;;
77350;SDS011;66420;50.246;14.320;2023-04-16T12:53:39;3.80;;;2.85;;
77350;SDS011;66420;50.246;14.320;2023-04-16T12:56:24;3.53;;;2.00;;
77350;SDS011;66420;50.246;14.320;2023-04-16T12:59:09;4.45;;;1.80;;
77350;SDS011;66420;50.246;14.320;2023-04-16T13:01:54;3.03;;;1.90;;
77350;SDS011;66420;50.246;14.320;2023-04-16T13:04:39;3.60;;;1.90;;
77350;SDS011;66420;50.246;14.320;2023-04-16T13:07:25;5.22;;;2.22;;
77350;SDS011;66420;50.246;14.320;2023-04-16T13:10:11;3.05;;;1.98;;
77350;SDS011;66420;50.246;14.320;2023-04-16T13:12:57;4.40;;;2.38;;
77350;SDS011;66420;50.246;14.320;2023-04-16T13:15:41;4.13;;;2.05;;
77350;SDS011;66420;50.246;14.320;2023-04-16T13:18:26;5.00;;;2.00;;
77350;SDS011;66420;50.246;14.320;2023-04-16T13:21:11;8.55;;;3.38;;
77350;SDS011;66420;50.246;14.320;2023-04-16T13:23:56;12.68;;;5.28;;
77350;SDS011;66420;50.246;14.320;2023-04-16T13:26:40;2.45;;;1.20;;
77350;SDS011;66420;50.246;14.320;2023-04-16T13:29:26;4.05;;;1.63;;
77350;SDS011;66420;50.246;14.320;2023-04-16T13:32:11;22.13;;;7.60;;
77350;SDS011;66420;50.246;14.320;2023-04-16T13:34:57;10.52;;;4.05;;
77350;SDS011;66420;50.246;14.320;2023-04-16T13:37:42;1.40;;;0.90;;
77350;SDS011;66420;50.246;14.320;2023-04-16T13:40:27;2.00;;;1.17;;
77350;SDS011;66420;50.246;14.320;2023-04-16T13:43:11;2.97;;;1.23;;
77350;SDS011;66420;50.246;14.320;2023-04-16T13:45:57;2.17;;;1.17;;
77350;SDS011;66420;50.246;14.320;2023-04-16T13:48:42;2.08;;;1.20;;
77350;SDS011;66420;50.246;14.320;2023-04-16T13:51:27;2.05;;;1.30;;
77350;SDS011;66420;50.246;14.320;2023-04-16T13:54:11;2.40;;;1.10;;
77350;SDS011;66420;50.246;14.320;2023-04-16T13:56:56;2.60;;;1.40;;
77350;SDS011;66420;50.246;14.320;2023-04-16T13:59:40;2.28;;;1.17;;
77350;SDS011;66420;50.246;14.320;2023-04-16T14:02:25;3.65;;;1.08;;
77350;SDS011;66420;50.246;14.320;2023-04-16T14:05:10;1.92;;;1.10;;
77350;SDS011;66420;50.246;14.320;2023-04-16T14:07:56;1.95;;;1.20;;
77350;SDS011;66420;50.246;14.320;2023-04-16T14:10:41;2.30;;;1.23;;
77350;SDS011;66420;50.246;14.320;2023-04-16T14:13:26;2.75;;;1.50;;
77350;SDS011;66420;50.246;14.320;2023-04-16T14:16:10;2.30;;;1.45;;
77350;SDS011;66420;50.246;14.320;2023-04-16T14:18:56;2.47;;;1.40;;
77350;SDS011;66420;50.246;14.320;2023-04-16T14:21:40;2.35;;;1.33;;
77350;SDS011;66420;50.246;14.320;2023-04-16T14:24:25;2.20;;;1.27;;
77350;SDS011;66420;50.246;14.320;2023-04-16T14:27:10;4.18;;;1.40;;
77350;SDS011;66420;50.246;14.320;2023-04-16T14:29:55;2.45;;;1.40;;
77350;SDS011;66420;50.246;14.320;2023-04-16T14:32:40;3.28;;;1.48;;
77350;SDS011;66420;50.246;14.320;2023-04-16T14:35:25;2.13;;;1.40;;
77350;SDS011;66420;50.246;14.320;2023-04-16T14:38:10;1.92;;;1.23;;
77350;SDS011;66420;50.246;14.320;2023-04-16T14:40:55;2.80;;;1.50;;
77350;SDS011;66420;50.246;14.320;2023-04-16T14:43:40;1.95;;;1.40;;
77350;SDS011;66420;50.246;14.320;2023-04-16T14:46:26;2.90;;;1.70;;
77350;SDS011;66420;50.246;14.320;2023-04-16T14:49:10;2.15;;;1.40;;
77350;SDS011;66420;50.246;14.320;2023-04-16T14:51:55;2.50;;;1.42;;
77350;SDS011;66420;50.246;14.320;2023-04-16T14:54:40;2.53;;;1.58;;
77350;SDS011;66420;50.246;14.320;2023-04-16T14:57:25;2.97;;;1.73;;
77350;SDS011;66420;50.246;14.320;2023-04-16T15:00:10;3.35;;;1.80;;
77350;SDS011;66420;50.246;14.320;2023-04-16T15:02:55;3.47;;;2.00;;
77350;SDS011;66420;50.246;14.320;2023-04-16T15:05:40;2.65;;;2.05;;
77350;SDS011;66420;50.246;14.320;2023-04-16T15:08:25;3.50;;;1.83;;
77350;SDS011;66420;50.246;14.320;2023-04-16T15:11:10;3.15;;;1.60;;
77350;SDS011;66420;50.246;14.320;2023-04-16T15:13:55;2.80;;;1.70;;
77350;SDS011;66420;50.246;14.320;2023-04-16T15:16:40;2.72;;;1.80;;
77350;SDS011;66420;50.246;14.320;2023-04-16T15:19:25;4.70;;;1.75;;
77350;SDS011;66420;50.246;14.320;2023-04-16T15:22:10;2.60;;;1.60;;
77350;SDS011;66420;50.246;14.320;2023-04-16T15:24:55;2.53;;;1.80;;
77350;SDS011;66420;50.246;14.320;2023-04-16T15:27:40;2.67;;;1.65;;
77350;SDS011;66420;50.246;14.320;2023-04-16T15:30:25;3.08;;;1.88;;
77350;SDS011;66420;50.246;14.320;2023-04-16T15:33:10;4.15;;;2.22;;
77350;SDS011;66420;50.246;14.320;2023-04-16T15:35:55;5.35;;;2.63;;
77350;SDS011;66420;50.246;14.320;2023-04-16T15:38:40;4.18;;;2.67;;
77350;SDS011;66420;50.246;14.320;2023-04-16T15:41:27;3.97;;;2.47;;
77350;SDS011;66420;50.246;14.320;2023-04-16T15:44:14;2.83;;;1.83;;
77350;SDS011;66420;50.246;14.320;2023-04-16T15:46:59;3.92;;;2.60;;
77350;SDS011;66420;50.246;14.320;2023-04-16T15:49:44;3.45;;;1.85;;
77350;SDS011;66420;50.246;14.320;2023-04-16T15:52:29;4.53;;;2.75;;
77350;SDS011;66420;50.246;14.320;2023-04-16T15:55:14;4.97;;;2.22;;
77350;SDS011;66420;50.246;14.320;2023-04-16T15:58:00;3.03;;;1.85;;
77350;SDS011;66420;50.246;14.320;2023-04-16T16:00:46;4.45;;;2.13;;
77350;SDS011;66420;50.246;14.320;2023-04-16T16:03:33;3.60;;;2.10;;
77350;SDS011;66420;50.246;14.320;2023-04-16T16:06:19;3.70;;;2.22;;
77350;SDS011;66420;50.246;14.320;2023-04-16T16:09:04;2.75;;;1.73;;
77350;SDS011;66420;50.246;14.320;2023-04-16T16:11:48;2.75;;;1.65;;
77350;SDS011;66420;50.246;14.320;2023-04-16T16:14:33;3.78;;;2.53;;
77350;SDS011;66420;50.246;14.320;2023-04-16T16:17:18;3.83;;;1.90;;
77350;SDS011;66420;50.246;14.320;2023-04-16T16:20:03;2.20;;;1.40;;
77350;SDS011;66420;50.246;14.320;2023-04-16T16:22:53;4.88;;;1.80;;
77350;SDS011;66420;50.246;14.320;2023-04-16T16:25:38;2.95;;;1.83;;